createdAt,value
2018-12-01T14:25:16.099Z,23.29
2018-12-01T14:26:16.119Z,23.33
2018-12-01T14:27:16.142Z,22.93
2018-12-01T14:28:16.163Z,23.20
2018-12-01T14:29:16.184Z,23.33
2018-12-01T14:30:16.206Z,23.08
2018-12-01T14:31:16.229Z,23.36
2018-12-01T14:32:16.253Z,23.56
2018-12-01T14:33:16.470Z,23.63
2018-12-01T14:34:16.292Z,23.51
2018-12-01T14:35:16.316Z,23.58
2018-12-01T14:36:16.337Z,23.91
2018-12-01T14:37:16.360Z,23.47
2018-12-01T14:38:16.385Z,23.06
2018-12-01T14:39:16.403Z,22.71
2018-12-01T14:40:16.425Z,22.51
2018-12-01T14:41:16.449Z,22.25
2018-12-01T14:42:16.470Z,22.16
2018-12-01T14:43:18.982Z,21.68
2018-12-01T14:44:19.001Z,21.05
2018-12-01T14:45:19.022Z,20.77
2018-12-01T14:46:19.039Z,20.55
2018-12-01T14:47:19.059Z,20.50
2018-12-01T14:48:19.082Z,20.39
2018-12-01T14:49:19.098Z,20.48
2018-12-01T14:50:19.117Z,20.36
2018-12-01T14:51:19.137Z,20.37
2018-12-01T14:52:19.158Z,20.46
2018-12-01T14:53:19.179Z,20.75
2018-12-01T14:54:19.198Z,20.83
2018-12-01T14:55:19.220Z,20.83
2018-12-01T14:56:19.240Z,20.71
2018-12-01T14:57:19.264Z,20.77
2018-12-01T14:58:19.280Z,20.74
2018-12-01T14:59:19.304Z,20.83
2018-12-01T15:00:19.323Z,20.86
2018-12-01T15:01:19.351Z,20.93
2018-12-01T15:02:19.365Z,20.95
2018-12-01T15:03:19.387Z,20.96
2018-12-01T15:04:19.409Z,21.11
2018-12-01T15:05:19.430Z,21.33
2018-12-01T15:06:19.448Z,21.40
2018-12-01T15:07:19.470Z,21.62
2018-12-01T15:08:19.491Z,21.78
2018-12-01T15:09:19.511Z,21.83
2018-12-01T15:10:19.532Z,21.99
2018-12-01T15:11:20.002Z,22.08
2018-12-01T15:12:19.572Z,22.15
2018-12-01T15:13:19.593Z,22.33
2018-12-01T15:14:19.614Z,21.94
2018-12-01T15:15:19.636Z,21.60
2018-12-01T15:16:19.657Z,21.54
2018-12-01T15:17:19.677Z,21.53
2018-12-01T15:18:19.697Z,21.59
2018-12-01T15:19:19.719Z,21.70
2018-12-01T15:20:19.744Z,21.78
2018-12-01T15:21:19.763Z,21.89
2018-12-01T15:22:44.516Z,22.61
2018-12-01T15:23:44.536Z,22.03
2018-12-01T15:24:44.560Z,21.35
2018-12-01T15:25:44.579Z,20.96
2018-12-01T15:26:44.600Z,20.71
2018-12-01T15:27:44.622Z,20.67
2018-12-01T15:28:44.642Z,20.64
2018-12-01T15:29:44.914Z,20.60
2018-12-01T15:30:44.684Z,20.56
2018-12-01T15:31:44.707Z,20.48
2018-12-01T15:32:44.728Z,20.55
2018-12-01T15:33:44.749Z,21.94
2018-12-01T15:34:44.769Z,22.51
2018-12-01T15:35:44.792Z,22.76
2018-12-01T15:36:44.813Z,22.81
2018-12-01T15:37:44.833Z,23.16
2018-12-01T15:38:44.911Z,23.16
2018-12-01T15:39:44.874Z,23.26
2018-12-01T15:40:44.895Z,23.33
2018-12-01T15:41:44.915Z,23.18
2018-12-01T15:42:44.932Z,23.21
2018-12-01T15:43:44.954Z,23.11
2018-12-01T15:44:44.972Z,23.18
2018-12-01T15:45:44.995Z,23.04
2018-12-01T15:46:45.013Z,23.01
2018-12-01T15:47:45.037Z,23.40
2018-12-01T15:48:45.055Z,23.52
2018-12-01T15:49:45.076Z,23.77
2018-12-01T15:50:45.097Z,23.77
2018-12-01T15:51:45.120Z,23.95
2018-12-01T15:52:45.141Z,24.09
2018-12-01T15:53:45.164Z,24.01
2018-12-01T15:54:45.185Z,24.06
2018-12-01T15:55:45.307Z,24.06
2018-12-01T15:56:45.228Z,24.16
2018-12-01T15:57:45.255Z,24.29
2018-12-01T15:58:45.722Z,24.22
2018-12-01T15:59:45.291Z,24.25
2018-12-01T16:00:45.314Z,24.10
2018-12-01T16:01:45.335Z,24.04
2018-12-01T16:02:45.355Z,24.00
2018-12-01T16:03:45.377Z,24.11
2018-12-01T16:04:45.399Z,24.25
